Time;durP1;ratioP1;P1;durP2;ratioP2;P2;SDS_P1;SDS_P2;PMS_P1;PMS_P2;Temp;Humidity;BMP_temperature;BMP_pressure;BME280_temperature;BME280_humidity;BME280_pressure;Samples;Min_cycle;Max_cycle;Signal;HPM_P1;HPM_P2
2023/09/19 00:02:14;;;;;;;8.63;1.30;;;21.00;59.20;;;;;;4913838;29;20296;-64
2023/09/19 00:05:03;;;;;;;4.78;1.58;;;21.00;59.20;;;;;;4867501;29;20243;-62
2023/09/19 00:37:30;;;;;;;6.53;1.40;;;20.90;58.90;;;;;;4856704;29;20325;-62
2023/09/19 00:40:53;;;;;;;;;;;;;;;;;;;;;
2023/09/19 03:31:16;;;;;;;2.92;1.20;;;20.90;59.10;;;;;;4821696;29;20247;-61
2023/09/19 03:40:21;;;;;;;6.82;1.40;;;20.90;59.20;;;;;;4919423;28;20189;-62
2023/09/19 04:49:49;;;;;;;4.35;1.58;;;20.80;59.80;;;;;;4850675;29;20263;-62
2023/09/19 06:25:56;;;;;;;;;;;;;;;;;;;;;
2023/09/19 06:53:35;;;;;;;;;;;;;;;;;;;;;
2023/09/19 07:03:33;;;;;;;11.35;2.25;;;20.90;61.00;;;;;;5043394;28;20265;-61
2023/09/19 07:06:11;;;;;;;7.50;2.10;;;21.00;61.10;;;;;;5042741;28;20659;-59
2023/09/19 07:08:41;;;;;;;7.53;2.03;;;21.00;61.10;;;;;;5112029;27;20249;-60
2023/09/19 07:11:12;;;;;;;8.38;1.73;;;21.10;61.20;;;;;;5099919;28;20608;-60
2023/09/19 07:13:41;;;;;;;5.88;1.55;;;21.10;61.20;;;;;;5103744;28;20243;-59
2023/09/19 07:16:27;;;;;;;13.52;1.70;;;21.20;61.30;;;;;;5112885;28;20193;-61
2023/09/19 07:18:55;;;;;;;5.75;1.63;;;21.10;61.10;;;;;;5111494;28;20245;-62
2023/09/19 07:21:23;;;;;;;6.05;1.92;;;21.10;61.10;;;;;;5088576;28;20190;-66
2023/09/19 07:23:51;;;;;;;9.00;1.52;;;21.20;61.20;;;;;;5109074;28;20302;-60
2023/09/19 07:26:18;;;;;;;7.03;1.80;;;21.20;61.30;;;;;;5098490;28;20189;-61
2023/09/19 07:28:48;;;;;;;11.55;1.95;;;21.30;61.40;;;;;;5109448;28;20300;-59
2023/09/19 07:31:26;;;;;;;;;;;;;;;;;;;;;
2023/09/19 07:33:54;;;;;;;10.80;1.70;;;21.40;61.40;;;;;;5042610;28;20248;-61
2023/09/19 07:36:24;;;;;;;13.02;1.67;;;21.40;61.20;;;;;;5103355;28;20930;-58
2023/09/19 07:42:04;;;;;;;27.90;3.05;;;21.60;61.30;;;;;;5100781;28;20211;-57
2023/09/19 07:48:14;;;;;;;9.20;1.45;;;21.50;60.90;;;;;;5042308;28;20226;-58
2023/09/19 07:53:59;;;;;;;;;;;;;;;;;;;;;
2023/09/19 07:59:59;;;;;;;8.17;2.23;;;21.50;62.00;;;;;;4993828;28;20528;-60
2023/09/19 08:06:15;;;;;;;10.50;2.15;;;21.60;60.90;;;;;;4882540;29;20222;-59
2023/09/19 08:08:42;;;;;;;9.68;2.13;;;21.60;61.10;;;;;;4864812;29;20242;-61
2023/09/19 08:11:12;;;;;;;6.00;2.10;;;21.60;61.10;;;;;;4945001;29;20365;-60
2023/09/19 08:13:45;;;;;;;8.60;2.10;;;21.50;61.00;;;;;;4947327;28;20231;-61
2023/09/19 08:16:34;;;;;;;13.02;2.00;;;21.60;61.20;;;;;;4948491;29;20239;-58
2023/09/19 08:19:02;;;;;;;6.43;2.15;;;21.50;61.20;;;;;;4947490;28;20736;-55
2023/09/19 08:21:29;;;;;;;13.05;2.10;;;21.60;61.40;;;;;;4974181;28;20197;-58
2023/09/19 08:23:58;;;;;;;15.55;2.17;;;21.60;61.40;;;;;;5018101;28;20591;-63
2023/09/19 08:26:29;;;;;;;7.35;1.60;;;21.60;61.50;;;;;;5021968;28;20207;-62
2023/09/19 08:28:57;;;;;;;12.10;2.17;;;21.60;61.50;;;;;;5026910;28;20220;-59
2023/09/19 08:31:25;;;;;;;8.80;1.80;;;21.50;61.40;;;;;;5024677;28;20216;-57
2023/09/19 08:33:55;;;;;;;13.07;2.15;;;21.50;61.40;;;;;;5020915;28;20791;-60
2023/09/19 08:36:23;;;;;;;8.73;1.92;;;21.50;61.40;;;;;;5024280;28;20235;-58
2023/09/19 08:38:50;;;;;;;7.35;2.10;;;21.50;61.40;;;;;;5033623;28;20229;-60
2023/09/19 08:41:19;;;;;;;10.20;2.10;;;21.60;61.60;;;;;;5086128;28;20198;-61
2023/09/19 08:43:48;;;;;;;11.13;2.03;;;21.50;61.50;;;;;;5089168;28;20224;-57
2023/09/19 08:46:17;;;;;;;9.63;2.20;;;21.60;61.60;;;;;;5111063;28;20185;-60
2023/09/19 08:49:02;;;;;;;7.03;2.28;;;21.60;61.60;;;;;;5096295;28;20250;-57
2023/09/19 08:51:47;;;;;;;6.93;2.03;;;21.60;61.60;;;;;;5079820;28;20290;-54
2023/09/19 08:57:11;;;;;;;6.25;2.10;;;21.60;61.70;;;;;;5072462;28;20293;-59
2023/09/19 08:59:44;;;;;;;5.32;2.33;;;21.60;61.80;;;;;;5107215;28;20224;-56
2023/09/19 09:02:13;;;;;;;9.65;2.10;;;21.60;61.90;;;;;;5099682;28;20203;-53
2023/09/19 09:04:57;;;;;;;8.70;2.38;;;21.60;61.90;;;;;;5101313;28;20271;-58
2023/09/19 09:07:27;;;;;;;5.45;2.05;;;21.70;62.10;;;;;;5095657;28;20208;-59
2023/09/19 09:09:54;;;;;;;6.70;2.42;;;21.70;62.10;;;;;;5112201;28;20213;-60
2023/09/19 09:12:26;;;;;;;14.25;2.33;;;21.70;62.10;;;;;;5102099;28;20205;-59
2023/09/19 09:14:58;;;;;;;7.68;2.05;;;21.70;62.10;;;;;;5114036;28;20264;-59
2023/09/19 09:17:48;;;;;;;8.48;2.58;;;21.70;62.10;;;;;;5113526;28;20276;-56
2023/09/19 09:23:38;;;;;;;8.65;2.10;;;21.70;62.10;;;;;;5113494;28;20251;-60
2023/09/19 09:26:13;;;;;;;6.90;1.90;;;21.70;62.10;;;;;;5108872;28;20220;-57
2023/09/19 09:28:47;;;;;;;8.60;1.98;;;21.70;62.10;;;;;;5105726;28;20197;-59
2023/09/19 09:31:25;;;;;;;8.55;2.47;;;21.70;62.90;;;;;;5109044;28;20604;-58
2023/09/19 09:33:57;;;;;;;12.13;2.13;;;21.70;62.10;;;;;;5104720;28;20216;-58
2023/09/19 09:36:38;;;;;;;7.72;1.85;;;21.70;62.10;;;;;;5106536;28;20197;-54
2023/09/19 09:39:21;;;;;;;8.50;1.98;;;21.70;62.10;;;;;;5083822;28;20218;-56
2023/09/19 09:41:52;;;;;;;7.25;2.20;;;21.70;62.10;;;;;;5094344;28;20255;-54
2023/09/19 09:44:20;;;;;;;9.73;2.00;;;21.70;62.10;;;;;;5096416;28;20224;-56
2023/09/19 09:47:27;;;;;;;8.77;2.03;;;21.70;62.10;;;;;;5109244;28;20201;-57
2023/09/19 09:49:54;;;;;;;9.82;2.20;;;21.80;62.20;;;;;;5110840;28;20274;-55
2023/09/19 09:52:24;;;;;;;12.48;1.88;;;21.80;62.20;;;;;;5108739;28;20224;-55
2023/09/19 09:55:05;;;;;;;12.27;2.35;;;21.80;62.20;;;;;;5072230;28;20238;-60
2023/09/19 09:58:18;;;;;;;5.32;2.00;;;21.80;62.20;;;;;;5071926;28;20195;-59
2023/09/19 10:01:07;;;;;;;;;;;;;;;;;;;;;
2023/09/19 10:04:01;;;;;;;11.13;2.40;;;21.80;62.20;;;;;;5025363;28;20202;-62
2023/09/19 10:06:48;;;;;;;10.70;2.30;;;21.90;62.30;;;;;;5073258;28;20281;-61
2023/09/19 10:09:20;;;;;;;6.13;2.17;;;21.90;62.20;;;;;;5082516;28;20553;-58
2023/09/19 10:11:54;;;;;;;8.63;2.60;;;21.90;62.20;;;;;;5079954;28;20195;-58
2023/09/19 10:14:23;;;;;;;12.27;2.58;;;21.90;62.20;;;;;;5091090;28;20229;-58
2023/09/19 10:17:00;;;;;;;6.57;1.95;;;21.90;62.20;;;;;;5091226;28;20198;-59
2023/09/19 10:19:34;;;;;;;13.77;2.72;;;21.90;62.20;;;;;;5078069;28;20190;-60
2023/09/19 10:22:04;;;;;;;7.13;2.55;;;21.80;62.20;;;;;;5081373;28;20231;-59
2023/09/19 10:24:34;;;;;;;8.32;2.38;;;21.80;62.10;;;;;;5079391;28;20952;-59
2023/09/19 10:27:03;;;;;;;8.50;2.53;;;21.80;62.20;;;;;;5097011;28;20222;-60
2023/09/19 10:32:19;;;;;;;6.40;2.45;;;21.80;62.10;;;;;;5043480;28;20340;-60
2023/09/19 10:34:49;;;;;;;5.70;2.08;;;21.80;62.20;;;;;;5073404;28;20237;-61
2023/09/19 10:37:29;;;;;;;;;;;;;;;;;;;;;
2023/09/19 10:39:58;;;;;;;8.35;2.33;;;21.80;62.20;;;;;;5029329;28;20236;-61
2023/09/19 10:42:28;;;;;;;6.47;2.65;;;21.80;62.20;;;;;;5071763;28;20208;-57
2023/09/19 10:45:00;;;;;;;7.95;2.33;;;21.80;62.20;;;;;;5091578;28;20226;-58
2023/09/19 10:47:27;;;;;;;7.15;2.92;;;21.80;62.20;;;;;;5092055;28;20229;-57
2023/09/19 10:49:56;;;;;;;10.13;3.13;;;21.80;62.10;;;;;;5086329;28;20309;-58
2023/09/19 10:55:19;;;;;;;7.38;2.10;;;21.80;62.20;;;;;;5097964;28;20235;-60
2023/09/19 11:00:34;;;;;;;5.32;2.40;;;21.80;62.20;;;;;;5108372;28;20374;-59
2023/09/19 11:03:23;;;;;;;9.30;2.63;;;21.70;62.00;;;;;;5101920;28;20230;-61
2023/09/19 11:06:13;;;;;;;9.80;3.05;;;21.80;62.10;;;;;;5106334;28;20217;-57
2023/09/19 11:09:22;;;;;;;8.63;2.90;;;21.70;62.00;;;;;;5085500;28;20235;-59
2023/09/19 11:11:52;;;;;;;11.30;2.72;;;21.70;62.10;;;;;;5101612;28;20226;-59
2023/09/19 11:14:40;;;;;;;8.65;2.83;;;21.80;62.20;;;;;;5100406;28;20236;-57
2023/09/19 11:17:35;;;;;;;8.95;2.90;;;21.70;62.10;;;;;;5105530;28;20250;-58
2023/09/19 11:23:31;;;;;;;11.18;3.20;;;21.70;62.10;;;;;;5096931;28;20208;-57
2023/09/19 11:25:58;;;;;;;11.80;2.92;;;21.70;62.10;;;;;;5043654;28;20218;-57
2023/09/19 11:28:33;;;;;;;10.85;3.83;;;21.70;62.10;;;;;;5105904;28;20670;-59
2023/09/19 11:31:24;;;;;;;8.75;2.80;;;21.70;62.10;;;;;;5107980;28;20221;-59
2023/09/19 11:34:32;;;;;;;10.35;3.17;;;21.70;62.10;;;;;;5109180;28;20224;-60
2023/09/19 11:37:00;;;;;;;9.52;3.00;;;21.70;62.10;;;;;;5110083;28;20231;-59
2023/09/19 11:39:31;;;;;;;13.13;3.10;;;21.70;62.10;;;;;;5110175;28;20189;-60
2023/09/19 11:42:32;;;;;;;7.88;2.72;;;21.70;62.10;;;;;;5105729;28;20297;-59
2023/09/19 11:45:25;;;;;;;9.93;3.53;;;21.70;62.10;;;;;;5108935;28;20195;-59
2023/09/19 11:47:54;;;;;;;7.90;3.20;;;21.70;62.10;;;;;;5085478;28;20280;-59
2023/09/19 11:50:22;;;;;;;9.48;3.10;;;21.70;62.10;;;;;;5090234;28;20210;-60
2023/09/19 11:52:51;;;;;;;8.55;3.00;;;21.70;62.10;;;;;;5081288;28;20325;-60
2023/09/19 11:55:24;;;;;;;10.15;2.70;;;21.70;62.10;;;;;;5087227;28;20233;-59
2023/09/19 11:57:56;;;;;;;11.60;3.13;;;21.70;62.10;;;;;;5090000;28;20190;-59
2023/09/19 12:00:23;;;;;;;9.80;3.38;;;21.70;62.10;;;;;;5090218;28;20220;-57
2023/09/19 12:02:56;;;;;;;9.90;3.15;;;21.70;62.20;;;;;;5086049;28;20269;-60
2023/09/19 12:05:44;;;;;;;8.55;2.78;;;21.70;62.50;;;;;;5066862;28;20222;-59
2023/09/19 12:08:16;;;;;;;9.02;3.00;;;21.80;62.80;;;;;;5075146;28;20322;-60
2023/09/19 12:10:49;;;;;;;9.05;3.10;;;21.80;62.90;;;;;;5059015;28;20222;-62
2023/09/19 12:14:07;;;;;;;13.25;3.67;;;21.80;62.90;;;;;;5069815;28;20660;-56
2023/09/19 12:16:36;;;;;;;9.85;3.03;;;21.80;62.50;;;;;;5066486;28;20637;-59
2023/09/19 12:19:23;;;;;;;9.05;3.78;;;21.90;62.40;;;;;;5070831;28;20571;-58
2023/09/19 12:22:19;;;;;;;;;;;;;;;;;;;;;
2023/09/19 12:25:25;;;;;;;9.60;3.65;;;22.00;62.40;;;;;;5015415;28;20209;-59
2023/09/19 12:27:55;;;;;;;11.55;3.35;;;21.90;62.30;;;;;;5079613;28;20190;-61
2023/09/19 12:30:44;;;;;;;6.78;3.20;;;21.90;62.30;;;;;;5079154;28;20247;-60
2023/09/19 12:33:33;;;;;;;10.65;3.35;;;21.90;62.30;;;;;;5071395;28;20285;-58
2023/09/19 12:36:25;;;;;;;11.48;3.58;;;21.90;62.30;;;;;;5076921;28;20265;-59
2023/09/19 12:39:23;;;;;;;14.60;3.67;;;21.90;62.30;;;;;;5075535;28;20203;-62
2023/09/19 12:41:52;;;;;;;8.82;3.35;;;21.90;62.30;;;;;;5072022;28;20742;-60
2023/09/19 12:44:24;;;;;;;9.70;3.33;;;22.00;62.40;;;;;;5067598;28;20202;-62
2023/09/19 12:46:54;;;;;;;12.68;3.47;;;22.00;62.40;;;;;;5080369;28;20628;-59
2023/09/19 12:49:22;;;;;;;10.43;3.80;;;22.00;62.40;;;;;;5023605;28;20198;-59
2023/09/19 12:51:52;;;;;;;11.73;3.53;;;22.00;62.40;;;;;;5081667;28;20221;-62
2023/09/19 12:54:53;;;;;;;11.75;3.10;;;22.00;62.40;;;;;;5097871;28;20209;-63
2023/09/19 12:57:26;;;;;;;13.85;3.47;;;22.10;62.50;;;;;;5095013;28;20231;-60
2023/09/19 12:59:56;;;;;;;11.65;3.90;;;22.00;62.30;;;;;;5104315;28;20198;-62
2023/09/19 13:02:28;;;;;;;12.88;3.38;;;22.10;62.50;;;;;;5103973;28;20224;-62
2023/09/19 13:04:59;;;;;;;10.18;3.60;;;22.20;62.50;;;;;;5103310;28;20204;-62
2023/09/19 13:07:47;;;;;;;10.48;3.65;;;22.20;62.50;;;;;;5097561;28;20221;-62
2023/09/19 13:10:16;;;;;;;11.98;3.63;;;22.10;62.40;;;;;;5092456;28;20571;-64
2023/09/19 13:12:47;;;;;;;12.45;4.20;;;22.10;62.30;;;;;;5093937;28;20229;-62
2023/09/19 13:15:20;;;;;;;11.05;3.92;;;22.20;62.40;;;;;;5101893;28;20213;-61
2023/09/19 13:17:49;;;;;;;8.95;3.63;;;22.10;62.30;;;;;;5105580;28;20217;-62
2023/09/19 13:20:29;;;;;;;14.55;3.58;;;22.20;62.40;;;;;;5104917;28;20251;-60
2023/09/19 13:23:00;;;;;;;9.57;4.10;;;22.20;62.50;;;;;;5104044;28;20267;-63
2023/09/19 13:25:29;;;;;;;12.15;3.92;;;22.30;62.40;;;;;;5097802;28;20206;-61
2023/09/19 13:27:59;;;;;;;10.38;3.50;;;22.30;62.50;;;;;;5101583;28;20320;-58
2023/09/19 13:30:31;;;;;;;13.75;4.20;;;22.30;62.30;;;;;;5100168;28;20198;-61
2023/09/19 13:33:10;;;;;;;8.85;3.33;;;22.30;62.30;;;;;;5084757;28;20765;-60
2023/09/19 13:35:41;;;;;;;11.25;3.92;;;22.30;62.20;;;;;;5092468;28;20767;-58
2023/09/19 13:38:11;;;;;;;12.07;4.00;;;22.40;62.20;;;;;;5097134;28;20303;-61
2023/09/19 13:40:41;;;;;;;9.40;3.83;;;22.30;62.10;;;;;;5094044;28;20201;-60
2023/09/19 13:43:35;;;;;;;12.05;3.65;;;22.30;62.00;;;;;;5098001;28;20324;-59
2023/09/19 13:46:05;;;;;;;12.45;4.63;;;22.40;62.10;;;;;;5021981;28;20336;-61
2023/09/19 13:48:35;;;;;;;11.57;4.28;;;22.40;62.00;;;;;;5098437;28;20197;-56
2023/09/19 13:51:04;;;;;;;14.30;4.47;;;22.40;62.10;;;;;;5097249;28;20198;-59
2023/09/19 13:53:31;;;;;;;8.40;3.55;;;22.40;62.00;;;;;;5103423;28;20233;-56
2023/09/19 13:56:00;;;;;;;12.55;4.20;;;22.50;62.10;;;;;;5086840;28;20221;-60
2023/09/19 13:58:49;;;;;;;8.50;3.58;;;22.50;62.00;;;;;;5102921;28;20593;-63
2023/09/19 14:01:18;;;;;;;17.90;4.03;;;22.50;62.10;;;;;;5098924;28;20197;-59
2023/09/19 14:03:49;;;;;;;13.85;4.15;;;22.50;62.00;;;;;;5103092;27;20204;-61
2023/09/19 14:06:17;;;;;;;14.18;4.00;;;22.50;61.90;;;;;;5098214;28;20282;-62
2023/09/19 14:08:47;;;;;;;13.18;3.85;;;22.50;61.80;;;;;;5100017;28;20198;-59
2023/09/19 14:11:16;;;;;;;9.38;3.67;;;22.50;61.70;;;;;;5102121;28;20193;-60
2023/09/19 14:13:46;;;;;;;12.35;4.05;;;22.50;61.70;;;;;;5093537;28;20231;-59
2023/09/19 14:16:14;;;;;;;11.55;4.00;;;22.50;61.70;;;;;;5096759;28;20842;-60
2023/09/19 14:18:43;;;;;;;15.07;4.38;;;22.50;61.80;;;;;;5099625;28;20239;-58
2023/09/19 14:21:11;;;;;;;10.68;3.83;;;22.40;61.80;;;;;;5090469;28;20208;-60
2023/09/19 14:23:39;;;;;;;10.60;4.68;;;22.50;62.00;;;;;;5101161;28;20635;-63
2023/09/19 14:26:07;;;;;;;9.88;3.92;;;22.40;61.90;;;;;;5087475;28;20194;-61
2023/09/19 14:28:34;;;;;;;11.63;4.25;;;22.40;61.90;;;;;;5103532;28;20229;-62
2023/09/19 14:31:06;;;;;;;13.25;4.20;;;22.40;61.90;;;;;;5101189;28;21176;-61
2023/09/19 14:33:34;;;;;;;10.60;3.97;;;22.50;62.00;;;;;;5084197;28;20218;-59
2023/09/19 14:36:06;;;;;;;12.25;3.60;;;22.50;62.10;;;;;;5096082;28;20220;-62
2023/09/19 14:38:38;;;;;;;7.60;3.60;;;22.50;62.00;;;;;;5098635;28;20232;-63
2023/09/19 14:47:16;;;;;;;12.32;4.30;;;22.50;62.20;;;;;;5093863;28;20931;-59
2023/09/19 14:52:54;;;;;;;11.95;4.55;;;22.50;62.30;;;;;;5013096;28;20351;-61
2023/09/19 14:55:27;;;;;;;10.75;4.00;;;22.50;62.40;;;;;;5018758;28;20226;-61
2023/09/19 14:57:59;;;;;;;12.25;4.10;;;22.50;62.50;;;;;;5079496;28;20226;-60
2023/09/19 15:00:27;;;;;;;11.57;4.18;;;22.50;62.50;;;;;;5075936;28;20206;-60
2023/09/19 15:02:58;;;;;;;11.65;4.10;;;22.50;62.40;;;;;;5068770;28;20213;-62
2023/09/19 15:05:25;;;;;;;12.63;4.10;;;22.50;62.50;;;;;;5064324;28;20201;-63
2023/09/19 15:07:55;;;;;;;10.55;4.30;;;22.50;62.50;;;;;;5067469;28;20227;-60
2023/09/19 15:10:50;;;;;;;17.05;3.83;;;22.50;62.60;;;;;;5076085;28;20194;-62
2023/09/19 15:20:54;;;;;;;15.25;4.03;;;22.50;62.60;;;;;;4935429;28;20619;-62
2023/09/19 15:23:31;;;;;;;12.45;4.30;;;22.50;62.60;;;;;;4942191;28;20246;-55
2023/09/19 15:25:58;;;;;;;12.75;4.10;;;22.50;62.70;;;;;;4949665;28;20213;-63
2023/09/19 15:28:43;;;;;;;12.13;4.13;;;22.50;62.60;;;;;;4997920;28;20375;-62
2023/09/19 15:31:13;;;;;;;11.93;3.97;;;22.50;62.60;;;;;;4990248;28;20773;-62
2023/09/19 15:34:02;;;;;;;9.38;4.05;;;22.50;62.80;;;;;;4990918;28;20226;-58
2023/09/19 15:36:32;;;;;;;12.95;3.95;;;22.50;62.80;;;;;;4988157;28;20221;-58
2023/09/19 15:39:03;;;;;;;10.40;3.90;;;22.50;62.80;;;;;;4997672;28;20221;-59
2023/09/19 15:41:37;;;;;;;9.18;4.10;;;22.50;62.90;;;;;;4997673;28;20212;-62
2023/09/19 15:47:04;;;;;;;7.18;3.60;;;22.50;62.90;;;;;;4997541;28;20209;-58
2023/09/19 15:49:32;;;;;;;9.48;3.47;;;22.50;62.90;;;;;;4995964;28;20224;-60
2023/09/19 15:54:44;;;;;;;10.18;3.75;;;22.50;62.90;;;;;;4994223;28;20229;-62
2023/09/19 15:57:40;;;;;;;14.20;4.18;;;22.50;62.90;;;;;;5042809;28;20229;-62
2023/09/19 16:02:56;;;;;;;15.00;3.88;;;22.50;62.90;;;;;;5059992;28;20276;-64
2023/09/19 16:05:23;;;;;;;12.70;4.20;;;22.40;63.00;;;;;;5054825;28;20210;-60
2023/09/19 16:07:50;;;;;;;13.30;3.83;;;22.40;63.10;;;;;;5060044;28;20584;-61
2023/09/19 16:10:19;;;;;;;10.70;3.55;;;22.50;63.20;;;;;;5048977;28;20223;-63
2023/09/19 16:12:46;;;;;;;11.32;4.20;;;22.50;63.30;;;;;;5052230;28;20233;-60
2023/09/19 16:15:15;;;;;;;11.95;3.67;;;22.40;63.20;;;;;;5064642;28;20215;-63
2023/09/19 16:17:43;;;;;;;15.20;4.30;;;22.40;63.40;;;;;;5052934;28;20231;-59
2023/09/19 16:20:12;;;;;;;9.82;3.70;;;22.50;63.50;;;;;;5044905;28;20212;-59
2023/09/19 16:22:40;;;;;;;10.57;4.03;;;22.50;63.60;;;;;;5044543;28;20301;-61
2023/09/19 16:25:11;;;;;;;8.73;3.45;;;22.50;63.60;;;;;;5050533;28;20728;-62
2023/09/19 16:27:40;;;;;;;8.95;3.35;;;22.50;63.60;;;;;;5082135;28;20209;-63
2023/09/19 16:30:10;;;;;;;13.45;4.10;;;22.50;63.70;;;;;;5102348;28;20232;-60
2023/09/19 16:32:41;;;;;;;7.53;3.78;;;22.50;63.60;;;;;;5095563;27;20196;-56
2023/09/19 16:35:09;;;;;;;12.05;3.85;;;22.50;63.70;;;;;;5092537;27;20240;-58
2023/09/19 16:37:39;;;;;;;10.27;3.97;;;22.60;63.90;;;;;;5082116;28;20232;-61
2023/09/19 16:40:08;;;;;;;12.30;3.95;;;22.50;63.70;;;;;;5091542;28;20783;-60
2023/09/19 16:42:37;;;;;;;15.50;3.95;;;22.50;63.70;;;;;;5088548;28;20209;-60
2023/09/19 16:45:07;;;;;;;10.05;3.22;;;22.60;64.60;;;;;;5086054;28;20295;-59
2023/09/19 16:47:35;;;;;;;10.45;3.70;;;22.60;63.90;;;;;;5108788;28;20257;-61
2023/09/19 16:50:03;;;;;;;12.20;4.40;;;22.60;64.00;;;;;;5105554;28;20240;-58
2023/09/19 16:52:34;;;;;;;9.98;3.95;;;22.60;64.10;;;;;;5096395;28;20230;-62
2023/09/19 16:55:02;;;;;;;17.20;4.10;;;22.60;64.00;;;;;;5081612;28;20447;-62
2023/09/19 17:00:43;;;;;;;11.27;4.15;;;22.80;64.70;;;;;;5084920;28;20226;-61
2023/09/19 17:03:12;;;;;;;11.30;4.03;;;22.80;63.90;;;;;;5072690;28;20585;-64
2023/09/19 17:05:40;;;;;;;10.70;4.50;;;22.70;63.80;;;;;;5077411;28;20800;-61
2023/09/19 17:15:11;;;;;;;10.27;3.72;;;22.60;64.20;;;;;;5092922;28;20221;-63
2023/09/19 17:25:08;;;;;;;10.43;3.88;;;22.50;64.20;;;;;;5034664;28;20338;-60
2023/09/19 17:27:39;;;;;;;9.20;3.75;;;22.50;64.30;;;;;;5040043;28;20292;-62
2023/09/19 17:30:15;;;;;;;8.98;3.50;;;22.40;64.30;;;;;;5042009;28;20363;-60
2023/09/19 17:35:53;;;;;;;10.55;3.55;;;22.40;64.40;;;;;;5026747;28;20231;-63
2023/09/19 17:38:22;;;;;;;10.02;3.97;;;22.40;64.50;;;;;;5040399;28;20294;-58
2023/09/19 17:44:34;;;;;;;10.75;3.60;;;22.30;64.60;;;;;;5039478;28;20207;-59
2023/09/19 17:47:11;;;;;;;7.22;3.35;;;22.30;64.60;;;;;;5029955;28;20774;-58
2023/09/19 17:49:39;;;;;;;10.77;3.38;;;22.30;64.60;;;;;;5036500;28;20378;-58
2023/09/19 17:52:32;;;;;;;9.68;3.53;;;22.30;64.60;;;;;;5037931;28;20714;-58
2023/09/19 17:55:03;;;;;;;9.48;3.70;;;22.30;64.70;;;;;;4966801;28;20224;-55
2023/09/19 17:57:32;;;;;;;9.38;3.80;;;22.40;64.70;;;;;;5015050;28;20308;-56
2023/09/19 18:00:00;;;;;;;8.77;3.40;;;22.30;64.60;;;;;;5034355;28;20222;-58
2023/09/19 18:02:38;;;;;;;8.85;3.72;;;22.30;64.60;;;;;;5070288;28;20281;-59
2023/09/19 18:07:55;;;;;;;8.15;3.45;;;22.20;64.50;;;;;;5048112;28;20296;-55
2023/09/19 18:10:26;;;;;;;7.35;3.10;;;22.20;64.50;;;;;;5034263;28;20257;-57
2023/09/19 18:12:55;;;;;;;6.07;2.97;;;22.10;64.40;;;;;;5069185;28;20719;-52
2023/09/19 18:15:32;;;;;;;7.55;3.20;;;22.20;64.80;;;;;;5088608;28;20309;-53
2023/09/19 18:18:11;;;;;;;9.18;2.92;;;22.20;64.80;;;;;;5088798;28;20698;-55
2023/09/19 18:20:43;;;;;;;10.02;3.00;;;22.20;65.00;;;;;;5081112;28;20241;-55
2023/09/19 18:23:13;;;;;;;9.45;3.25;;;22.10;64.90;;;;;;5103044;28;20189;-56
2023/09/19 18:25:43;;;;;;;10.07;3.13;;;22.00;64.90;;;;;;5070560;28;20735;-55
2023/09/19 18:28:22;;;;;;;11.32;3.40;;;22.10;65.10;;;;;;5039623;28;20759;-57
2023/09/19 18:30:49;;;;;;;7.32;3.40;;;22.10;65.20;;;;;;5084072;28;20326;-53
2023/09/19 18:33:20;;;;;;;12.05;3.25;;;22.10;65.30;;;;;;5067425;28;20202;-52
2023/09/19 18:35:51;;;;;;;9.48;2.65;;;22.00;65.20;;;;;;5088600;28;20210;-54
2023/09/19 18:38:21;;;;;;;5.97;3.00;;;22.10;66.20;;;;;;5063738;28;20230;-63
2023/09/19 18:40:50;;;;;;;7.60;3.35;;;22.00;65.40;;;;;;5087577;28;20293;-64
2023/09/19 18:43:18;;;;;;;8.85;3.15;;;22.00;65.60;;;;;;5113252;28;20201;-60
2023/09/19 18:45:57;;;;;;;8.90;3.17;;;22.00;65.70;;;;;;5044854;28;20214;-57
2023/09/19 18:48:27;;;;;;;8.73;3.53;;;22.10;65.50;;;;;;5107742;28;20734;-60
2023/09/19 18:50:55;;;;;;;8.93;3.17;;;22.10;65.40;;;;;;5069640;28;20610;-59
2023/09/19 18:53:25;;;;;;;8.80;3.15;;;22.00;65.30;;;;;;5105236;28;20235;-62
2023/09/19 18:56:03;;;;;;;7.80;2.75;;;22.00;65.40;;;;;;5111234;27;20214;-62
2023/09/19 18:58:30;;;;;;;10.60;3.40;;;22.00;65.50;;;;;;5109613;28;20701;-57
2023/09/19 19:01:02;;;;;;;8.75;2.92;;;22.00;65.50;;;;;;5109103;28;20216;-59
2023/09/19 19:03:31;;;;;;;8.05;3.75;;;22.00;65.70;;;;;;5113309;28;20242;-56
2023/09/19 19:05:58;;;;;;;9.95;3.13;;;21.90;65.60;;;;;;5113202;27;20584;-61
2023/09/19 19:08:25;;;;;;;5.95;2.80;;;21.90;65.80;;;;;;5112772;28;20201;-60
2023/09/19 19:10:53;;;;;;;6.72;2.90;;;21.90;65.80;;;;;;5119761;27;20299;-60
2023/09/19 19:13:20;;;;;;;7.10;3.47;;;21.90;65.80;;;;;;5133815;27;20189;-59
2023/09/19 19:15:47;;;;;;;6.47;3.10;;;21.90;65.80;;;;;;5132940;27;20212;-60
2023/09/19 19:18:14;;;;;;;5.40;3.13;;;21.90;65.80;;;;;;5132786;27;20212;-60
2023/09/19 19:20:43;;;;;;;10.43;3.13;;;21.90;65.80;;;;;;5108021;27;20245;-60
2023/09/19 19:23:11;;;;;;;7.78;2.65;;;21.90;65.90;;;;;;5092995;28;20197;-58
2023/09/19 19:25:47;;;;;;;6.97;3.20;;;21.80;65.80;;;;;;5104340;28;20255;-60
2023/09/19 19:28:14;;;;;;;6.95;2.97;;;21.80;65.80;;;;;;5112920;28;20189;-59
2023/09/19 19:30:44;;;;;;;9.07;3.20;;;21.80;65.90;;;;;;5112324;28;20237;-60
2023/09/19 19:33:11;;;;;;;7.32;3.33;;;21.90;66.00;;;;;;5112584;28;20194;-59
2023/09/19 19:35:40;;;;;;;5.75;3.05;;;21.80;65.90;;;;;;5112537;28;20728;-59
2023/09/19 19:38:09;;;;;;;5.80;2.90;;;21.80;65.90;;;;;;5112295;28;20217;-59
2023/09/19 19:40:45;;;;;;;6.70;2.83;;;21.80;65.90;;;;;;5112344;28;20213;-59
2023/09/19 19:43:12;;;;;;;4.65;2.78;;;21.80;65.90;;;;;;5112354;28;20197;-60
2023/09/19 19:45:40;;;;;;;6.47;2.65;;;21.90;66.10;;;;;;5112589;28;20220;-58
2023/09/19 19:48:07;;;;;;;5.38;2.40;;;21.70;65.90;;;;;;5112305;28;20200;-60
2023/09/19 19:50:41;;;;;;;8.73;2.85;;;21.80;66.00;;;;;;5111951;28;20224;-54
2023/09/19 19:53:10;;;;;;;4.53;2.20;;;21.70;65.90;;;;;;5111500;28;20251;-59
2023/09/19 19:55:39;;;;;;;6.60;2.35;;;21.80;66.00;;;;;;5104704;28;20225;-60
2023/09/19 19:58:07;;;;;;;4.35;2.42;;;21.70;65.90;;;;;;5111096;28;20266;-60
2023/09/19 20:00:36;;;;;;;5.82;2.58;;;21.70;65.90;;;;;;5116881;27;20212;-59
2023/09/19 20:03:04;;;;;;;6.97;2.47;;;21.70;65.90;;;;;;5132276;27;20192;-57
2023/09/19 20:05:31;;;;;;;7.47;2.67;;;21.80;66.00;;;;;;5119389;27;20263;-58
2023/09/19 20:07:59;;;;;;;6.10;2.80;;;21.70;65.90;;;;;;5091357;28;20576;-60
2023/09/19 20:10:27;;;;;;;4.55;2.50;;;21.70;65.90;;;;;;5098506;28;20296;-60
2023/09/19 20:12:55;;;;;;;5.10;2.22;;;21.70;66.00;;;;;;5112349;28;20190;-60
2023/09/19 20:15:24;;;;;;;5.38;2.20;;;21.70;66.00;;;;;;5118951;27;20278;-60
2023/09/19 20:17:52;;;;;;;4.45;2.08;;;21.70;66.00;;;;;;5132312;27;20215;-60
2023/09/19 20:20:21;;;;;;;5.10;2.50;;;21.70;66.00;;;;;;5120539;27;20653;-59
2023/09/19 20:22:50;;;;;;;7.28;2.67;;;21.70;66.00;;;;;;5091356;28;20573;-60
2023/09/19 20:25:17;;;;;;;6.20;2.47;;;21.70;66.00;;;;;;5096626;28;20244;-59
2023/09/19 20:28:01;;;;;;;3.45;1.98;;;21.70;66.00;;;;;;5112173;28;20189;-59
2023/09/19 20:30:37;;;;;;;4.85;2.20;;;21.60;65.90;;;;;;5112052;28;20217;-59
2023/09/19 20:33:47;;;;;;;6.10;2.15;;;21.70;66.10;;;;;;5132381;27;20366;-60
2023/09/19 20:36:15;;;;;;;5.47;2.40;;;21.70;66.10;;;;;;5086422;27;20216;-59
2023/09/19 20:38:42;;;;;;;4.47;2.40;;;21.70;66.10;;;;;;5132124;27;20223;-57
2023/09/19 20:41:10;;;;;;;5.53;2.05;;;21.70;66.10;;;;;;5114845;27;20217;-59
2023/09/19 20:43:40;;;;;;;5.60;2.00;;;21.70;66.90;;;;;;5091052;28;20233;-60
2023/09/19 20:46:07;;;;;;;2.80;1.98;;;21.70;66.10;;;;;;5102139;28;20301;-60
2023/09/19 20:48:35;;;;;;;4.90;2.38;;;21.60;66.00;;;;;;5111979;28;20193;-60
2023/09/19 20:51:09;;;;;;;3.90;2.10;;;21.70;66.20;;;;;;5110951;28;20305;-60
2023/09/19 20:53:37;;;;;;;6.18;2.00;;;21.70;66.20;;;;;;5111294;28;20721;-60
2023/09/19 20:56:06;;;;;;;8.50;2.15;;;21.70;66.20;;;;;;5111284;28;20702;-55
2023/09/19 20:58:33;;;;;;;5.45;2.10;;;21.70;66.30;;;;;;5121819;28;20256;-60
2023/09/19 21:01:06;;;;;;;3.47;2.05;;;21.60;66.10;;;;;;5116352;27;20214;-60
2023/09/19 21:03:34;;;;;;;5.78;2.40;;;21.60;66.10;;;;;;5092028;28;20193;-58
2023/09/19 21:06:03;;;;;;;5.55;2.10;;;21.70;66.30;;;;;;5104605;28;20209;-60
2023/09/19 21:08:31;;;;;;;4.38;2.38;;;21.60;66.10;;;;;;5115377;28;20246;-59
2023/09/19 21:10:59;;;;;;;4.65;2.20;;;21.60;66.20;;;;;;5114943;28;20296;-60
2023/09/19 21:13:27;;;;;;;5.35;1.83;;;21.60;66.20;;;;;;5116026;28;20222;-60
2023/09/19 21:15:55;;;;;;;3.78;1.95;;;21.60;66.20;;;;;;5115168;28;20220;-61
2023/09/19 21:18:24;;;;;;;3.35;1.67;;;21.60;66.20;;;;;;5115229;28;20217;-60
2023/09/19 21:20:51;;;;;;;5.18;2.33;;;21.60;66.20;;;;;;5115098;28;20232;-60
2023/09/19 21:23:18;;;;;;;3.95;2.13;;;21.70;66.30;;;;;;5114848;28;20201;-59
2023/09/19 21:25:54;;;;;;;3.88;2.00;;;21.50;66.10;;;;;;5117229;27;20215;-60
2023/09/19 21:28:21;;;;;;;5.57;2.92;;;21.60;66.30;;;;;;5135853;27;20220;-57
2023/09/19 21:30:59;;;;;;;5.63;2.35;;;21.60;66.30;;;;;;5126895;27;20262;-60